sensor_id;sensor_type;location;lat;lon;timestamp;temperature;humidity
17080;DHT22;8655;57.106;-2.088;2023-08-21T00:01:28;22.60;82.60
17080;DHT22;8655;57.106;-2.088;2023-08-21T00:03:53;22.60;82.60
17080;DHT22;8655;57.106;-2.088;2023-08-21T00:06:19;22.60;82.60
17080;DHT22;8655;57.106;-2.088;2023-08-21T00:08:45;22.60;82.60
17080;DHT22;8655;57.106;-2.088;2023-08-21T00:11:10;22.60;82.60
17080;DHT22;8655;57.106;-2.088;2023-08-21T00:13:36;22.60;82.60
17080;DHT22;8655;57.106;-2.088;2023-08-21T00:16:02;22.60;82.60
17080;DHT22;8655;57.106;-2.088;2023-08-21T00:18:27;22.60;82.60
17080;DHT22;8655;57.106;-2.088;2023-08-21T00:20:53;22.60;82.60
17080;DHT22;8655;57.106;-2.088;2023-08-21T00:23:19;22.60;82.60
17080;DHT22;8655;57.106;-2.088;2023-08-21T00:25:46;22.60;82.60
17080;DHT22;8655;57.106;-2.088;2023-08-21T00:28:12;22.50;82.50
17080;DHT22;8655;57.106;-2.088;2023-08-21T00:30:38;22.50;82.50
17080;DHT22;8655;57.106;-2.088;2023-08-21T00:33:03;22.60;82.60
17080;DHT22;8655;57.106;-2.088;2023-08-21T00:35:29;22.60;82.50
17080;DHT22;8655;57.106;-2.088;2023-08-21T00:37:55;22.50;82.40
17080;DHT22;8655;57.106;-2.088;2023-08-21T00:40:20;22.50;82.40
17080;DHT22;8655;57.106;-2.088;2023-08-21T00:42:46;22.50;82.40
17080;DHT22;8655;57.106;-2.088;2023-08-21T00:45:12;22.50;82.40
17080;DHT22;8655;57.106;-2.088;2023-08-21T00:47:37;22.50;82.40
17080;DHT22;8655;57.106;-2.088;2023-08-21T00:50:06;22.50;82.40
17080;DHT22;8655;57.106;-2.088;2023-08-21T00:52:32;22.50;82.40
17080;DHT22;8655;57.106;-2.088;2023-08-21T00:54:58;22.50;82.40
17080;DHT22;8655;57.106;-2.088;2023-08-21T00:57:25;22.50;82.40
17080;DHT22;8655;57.106;-2.088;2023-08-21T00:59:51;22.50;82.40
17080;DHT22;8655;57.106;-2.088;2023-08-21T01:02:17;22.50;82.40
17080;DHT22;8655;57.106;-2.088;2023-08-21T01:04:44;22.50;82.40
17080;DHT22;8655;57.106;-2.088;2023-08-21T01:07:10;22.50;82.40
17080;DHT22;8655;57.106;-2.088;2023-08-21T01:09:46;22.50;82.40
17080;DHT22;8655;57.106;-2.088;2023-08-21T01:17:23;22.50;82.40
17080;DHT22;8655;57.106;-2.088;2023-08-21T01:19:50;22.50;82.40
17080;DHT22;8655;57.106;-2.088;2023-08-21T01:22:16;22.50;82.40
17080;DHT22;8655;57.106;-2.088;2023-08-21T01:24:42;22.40;82.20
17080;DHT22;8655;57.106;-2.088;2023-08-21T01:27:09;22.50;82.40
17080;DHT22;8655;57.106;-2.088;2023-08-21T01:29:35;22.50;82.30
17080;DHT22;8655;57.106;-2.088;2023-08-21T01:34:56;22.50;82.30
17080;DHT22;8655;57.106;-2.088;2023-08-21T01:37:24;22.50;82.30
17080;DHT22;8655;57.106;-2.088;2023-08-21T01:39:49;22.50;82.30
17080;DHT22;8655;57.106;-2.088;2023-08-21T01:42:15;22.50;82.30
17080;DHT22;8655;57.106;-2.088;2023-08-21T01:44:41;22.50;82.30
17080;DHT22;8655;57.106;-2.088;2023-08-21T01:47:07;22.50;82.30
17080;DHT22;8655;57.106;-2.088;2023-08-21T01:49:32;22.50;82.30
17080;DHT22;8655;57.106;-2.088;2023-08-21T01:51:58;22.50;82.30
17080;DHT22;8655;57.106;-2.088;2023-08-21T01:54:24;22.40;82.20
17080;DHT22;8655;57.106;-2.088;2023-08-21T01:56:49;22.50;82.30
17080;DHT22;8655;57.106;-2.088;2023-08-21T01:59:16;22.40;82.20
17080;DHT22;8655;57.106;-2.088;2023-08-21T02:01:43;22.50;82.30
17080;DHT22;8655;57.106;-2.088;2023-08-21T02:04:09;22.40;82.20
17080;DHT22;8655;57.106;-2.088;2023-08-21T02:06:34;22.40;82.20
17080;DHT22;8655;57.106;-2.088;2023-08-21T02:09:00;22.40;82.20
17080;DHT22;8655;57.106;-2.088;2023-08-21T02:11:26;22.40;82.20
17080;DHT22;8655;57.106;-2.088;2023-08-21T02:13:51;22.40;82.20
17080;DHT22;8655;57.106;-2.088;2023-08-21T02:16:17;22.40;82.20
17080;DHT22;8655;57.106;-2.088;2023-08-21T02:18:42;22.40;82.10
17080;DHT22;8655;57.106;-2.088;2023-08-21T02:21:08;22.40;82.20
17080;DHT22;8655;57.106;-2.088;2023-08-21T02:23:34;22.40;82.80
17080;DHT22;8655;57.106;-2.088;2023-08-21T02:25:59;22.40;82.20
17080;DHT22;8655;57.106;-2.088;2023-08-21T02:28:25;22.40;82.20
17080;DHT22;8655;57.106;-2.088;2023-08-21T02:30:51;22.40;82.10
17080;DHT22;8655;57.106;-2.088;2023-08-21T02:33:16;22.40;82.10
17080;DHT22;8655;57.106;-2.088;2023-08-21T02:35:42;22.40;82.10
17080;DHT22;8655;57.106;-2.088;2023-08-21T02:38:07;22.40;82.10
17080;DHT22;8655;57.106;-2.088;2023-08-21T02:40:33;22.40;82.10
17080;DHT22;8655;57.106;-2.088;2023-08-21T02:42:59;22.40;82.10
17080;DHT22;8655;57.106;-2.088;2023-08-21T02:45:24;22.40;82.10
17080;DHT22;8655;57.106;-2.088;2023-08-21T02:47:50;22.40;82.10
17080;DHT22;8655;57.106;-2.088;2023-08-21T02:50:16;22.40;82.10
17080;DHT22;8655;57.106;-2.088;2023-08-21T02:52:41;22.40;82.00
17080;DHT22;8655;57.106;-2.088;2023-08-21T02:55:07;22.40;82.70
17080;DHT22;8655;57.106;-2.088;2023-08-21T02:57:33;22.40;82.10
17080;DHT22;8655;57.106;-2.088;2023-08-21T02:59:59;22.40;82.10
17080;DHT22;8655;57.106;-2.088;2023-08-21T03:02:24;22.40;82.00
17080;DHT22;8655;57.106;-2.088;2023-08-21T03:04:50;22.40;82.00
17080;DHT22;8655;57.106;-2.088;2023-08-21T03:07:16;22.40;82.00
17080;DHT22;8655;57.106;-2.088;2023-08-21T03:09:45;22.30;81.90
17080;DHT22;8655;57.106;-2.088;2023-08-21T03:12:12;22.30;81.90
17080;DHT22;8655;57.106;-2.088;2023-08-21T03:14:38;22.30;81.90
17080;DHT22;8655;57.106;-2.088;2023-08-21T03:17:03;22.40;82.00
17080;DHT22;8655;57.106;-2.088;2023-08-21T03:19:29;22.30;81.90
17080;DHT22;8655;57.106;-2.088;2023-08-21T03:21:55;22.30;81.90
17080;DHT22;8655;57.106;-2.088;2023-08-21T03:24:20;22.30;82.60
17080;DHT22;8655;57.106;-2.088;2023-08-21T03:26:46;22.30;81.90
17080;DHT22;8655;57.106;-2.088;2023-08-21T03:29:11;22.30;81.90
17080;DHT22;8655;57.106;-2.088;2023-08-21T03:31:37;22.30;81.90
17080;DHT22;8655;57.106;-2.088;2023-08-21T03:34:03;22.30;81.90
17080;DHT22;8655;57.106;-2.088;2023-08-21T03:36:28;22.30;81.90
17080;DHT22;8655;57.106;-2.088;2023-08-21T03:39:01;22.30;81.90
17080;DHT22;8655;57.106;-2.088;2023-08-21T03:41:27;22.30;81.90
17080;DHT22;8655;57.106;-2.088;2023-08-21T03:43:53;22.30;81.90
17080;DHT22;8655;57.106;-2.088;2023-08-21T03:46:19;22.30;81.90
17080;DHT22;8655;57.106;-2.088;2023-08-21T03:48:44;22.30;81.90
17080;DHT22;8655;57.106;-2.088;2023-08-21T03:51:10;22.30;81.90
17080;DHT22;8655;57.106;-2.088;2023-08-21T03:53:36;22.30;81.90
17080;DHT22;8655;57.106;-2.088;2023-08-21T03:56:02;22.30;81.90
17080;DHT22;8655;57.106;-2.088;2023-08-21T03:58:27;22.30;81.90
17080;DHT22;8655;57.106;-2.088;2023-08-21T04:00:53;22.30;81.90
17080;DHT22;8655;57.106;-2.088;2023-08-21T04:03:20;22.30;81.90
17080;DHT22;8655;57.106;-2.088;2023-08-21T04:05:46;22.30;81.90
17080;DHT22;8655;57.106;-2.088;2023-08-21T04:08:11;22.30;81.90
17080;DHT22;8655;57.106;-2.088;2023-08-21T04:10:37;22.30;81.90
17080;DHT22;8655;57.106;-2.088;2023-08-21T04:13:04;22.20;81.70
17080;DHT22;8655;57.106;-2.088;2023-08-21T04:15:30;22.30;81.90
17080;DHT22;8655;57.106;-2.088;2023-08-21T04:17:56;22.30;81.90
17080;DHT22;8655;57.106;-2.088;2023-08-21T04:20:22;22.30;81.90
17080;DHT22;8655;57.106;-2.088;2023-08-21T04:22:49;22.20;81.70
17080;DHT22;8655;57.106;-2.088;2023-08-21T04:25:14;22.30;81.90
17080;DHT22;8655;57.106;-2.088;2023-08-21T04:27:41;22.20;81.70
17080;DHT22;8655;57.106;-2.088;2023-08-21T04:30:08;22.20;81.70
17080;DHT22;8655;57.106;-2.088;2023-08-21T04:32:34;22.30;81.80
17080;DHT22;8655;57.106;-2.088;2023-08-21T04:34:59;22.30;81.90
17080;DHT22;8655;57.106;-2.088;2023-08-21T04:37:25;22.20;81.70
17080;DHT22;8655;57.106;-2.088;2023-08-21T04:39:52;22.20;81.70
17080;DHT22;8655;57.106;-2.088;2023-08-21T04:42:17;22.20;81.70
17080;DHT22;8655;57.106;-2.088;2023-08-21T04:44:43;22.20;81.70
17080;DHT22;8655;57.106;-2.088;2023-08-21T04:47:26;22.20;81.70
17080;DHT22;8655;57.106;-2.088;2023-08-21T04:49:52;22.20;81.70
17080;DHT22;8655;57.106;-2.088;2023-08-21T04:52:22;22.20;81.70
17080;DHT22;8655;57.106;-2.088;2023-08-21T04:54:48;22.20;81.70
17080;DHT22;8655;57.106;-2.088;2023-08-21T04:57:15;22.20;81.70
17080;DHT22;8655;57.106;-2.088;2023-08-21T04:59:41;22.20;81.70
17080;DHT22;8655;57.106;-2.088;2023-08-21T05:02:07;22.20;81.70
17080;DHT22;8655;57.106;-2.088;2023-08-21T05:04:33;22.20;81.70
17080;DHT22;8655;57.106;-2.088;2023-08-21T05:07:00;22.20;81.70
17080;DHT22;8655;57.106;-2.088;2023-08-21T05:09:26;22.20;81.70
17080;DHT22;8655;57.106;-2.088;2023-08-21T05:11:52;22.20;81.70
17080;DHT22;8655;57.106;-2.088;2023-08-21T05:14:17;22.20;81.70
17080;DHT22;8655;57.106;-2.088;2023-08-21T05:16:45;22.20;81.70
17080;DHT22;8655;57.106;-2.088;2023-08-21T05:19:11;22.20;81.60
17080;DHT22;8655;57.106;-2.088;2023-08-21T05:21:37;22.20;81.60
17080;DHT22;8655;57.106;-2.088;2023-08-21T05:24:03;22.20;81.70
17080;DHT22;8655;57.106;-2.088;2023-08-21T05:26:28;22.10;81.50
17080;DHT22;8655;57.106;-2.088;2023-08-21T05:28:54;22.20;81.60
17080;DHT22;8655;57.106;-2.088;2023-08-21T05:31:20;22.20;81.60
17080;DHT22;8655;57.106;-2.088;2023-08-21T05:33:45;22.20;81.60
17080;DHT22;8655;57.106;-2.088;2023-08-21T05:36:11;22.20;81.60
17080;DHT22;8655;57.106;-2.088;2023-08-21T05:38:36;22.20;81.60
17080;DHT22;8655;57.106;-2.088;2023-08-21T05:41:02;22.10;81.60
17080;DHT22;8655;57.106;-2.088;2023-08-21T05:43:28;22.10;81.50
17080;DHT22;8655;57.106;-2.088;2023-08-21T05:45:54;22.10;81.50
17080;DHT22;8655;57.106;-2.088;2023-08-21T05:48:19;22.10;81.60
17080;DHT22;8655;57.106;-2.088;2023-08-21T05:50:50;22.10;81.50
17080;DHT22;8655;57.106;-2.088;2023-08-21T05:53:16;22.10;81.50
17080;DHT22;8655;57.106;-2.088;2023-08-21T05:55:42;22.10;81.50
17080;DHT22;8655;57.106;-2.088;2023-08-21T05:58:07;22.10;81.50
17080;DHT22;8655;57.106;-2.088;2023-08-21T06:00:34;22.10;81.50
17080;DHT22;8655;57.106;-2.088;2023-08-21T06:03:00;22.10;81.50
17080;DHT22;8655;57.106;-2.088;2023-08-21T06:05:26;22.10;81.50
17080;DHT22;8655;57.106;-2.088;2023-08-21T06:07:52;22.10;81.50
17080;DHT22;8655;57.106;-2.088;2023-08-21T06:10:17;22.10;81.50
17080;DHT22;8655;57.106;-2.088;2023-08-21T06:12:43;22.10;81.50
17080;DHT22;8655;57.106;-2.088;2023-08-21T06:15:09;22.10;81.50
17080;DHT22;8655;57.106;-2.088;2023-08-21T06:17:36;22.10;81.50
17080;DHT22;8655;57.106;-2.088;2023-08-21T06:20:02;22.10;81.50
17080;DHT22;8655;57.106;-2.088;2023-08-21T06:22:31;22.10;81.50
17080;DHT22;8655;57.106;-2.088;2023-08-21T06:24:57;22.10;81.50
17080;DHT22;8655;57.106;-2.088;2023-08-21T06:27:23;22.10;81.50
17080;DHT22;8655;57.106;-2.088;2023-08-21T06:29:48;22.10;81.50
17080;DHT22;8655;57.106;-2.088;2023-08-21T06:32:14;22.10;81.50
17080;DHT22;8655;57.106;-2.088;2023-08-21T06:34:40;22.10;81.50
17080;DHT22;8655;57.106;-2.088;2023-08-21T06:37:05;22.10;81.50
17080;DHT22;8655;57.106;-2.088;2023-08-21T06:39:31;22.10;81.50
17080;DHT22;8655;57.106;-2.088;2023-08-21T06:41:57;22.10;81.50
17080;DHT22;8655;57.106;-2.088;2023-08-21T06:44:22;22.10;81.50
17080;DHT22;8655;57.106;-2.088;2023-08-21T06:46:48;22.10;81.50
17080;DHT22;8655;57.106;-2.088;2023-08-21T06:49:14;22.10;81.50
17080;DHT22;8655;57.106;-2.088;2023-08-21T06:51:39;22.10;81.50
17080;DHT22;8655;57.106;-2.088;2023-08-21T06:54:05;22.10;81.50
17080;DHT22;8655;57.106;-2.088;2023-08-21T06:56:31;22.10;81.50
17080;DHT22;8655;57.106;-2.088;2023-08-21T06:58:57;22.10;81.50
17080;DHT22;8655;57.106;-2.088;2023-08-21T07:01:23;22.00;81.40
17080;DHT22;8655;57.106;-2.088;2023-08-21T07:03:48;22.00;81.40
17080;DHT22;8655;57.106;-2.088;2023-08-21T07:06:14;22.10;81.50
17080;DHT22;8655;57.106;-2.088;2023-08-21T07:08:39;22.10;81.50
17080;DHT22;8655;57.106;-2.088;2023-08-21T07:11:06;22.10;81.50
17080;DHT22;8655;57.106;-2.088;2023-08-21T07:13:34;22.10;81.50
17080;DHT22;8655;57.106;-2.088;2023-08-21T07:15:59;22.00;81.40
17080;DHT22;8655;57.106;-2.088;2023-08-21T07:18:29;22.10;81.50
17080;DHT22;8655;57.106;-2.088;2023-08-21T07:20:55;22.10;81.50
17080;DHT22;8655;57.106;-2.088;2023-08-21T07:23:20;22.10;81.50
17080;DHT22;8655;57.106;-2.088;2023-08-21T07:25:46;22.00;81.40
17080;DHT22;8655;57.106;-2.088;2023-08-21T07:28:12;22.10;81.50
17080;DHT22;8655;57.106;-2.088;2023-08-21T07:30:38;22.10;81.50
17080;DHT22;8655;57.106;-2.088;2023-08-21T07:33:04;22.00;81.50
17080;DHT22;8655;57.106;-2.088;2023-08-21T07:35:30;22.10;82.20
17080;DHT22;8655;57.106;-2.088;2023-08-21T07:37:56;22.10;81.60
17080;DHT22;8655;57.106;-2.088;2023-08-21T07:40:22;22.00;81.50
17080;DHT22;8655;57.106;-2.088;2023-08-21T07:42:47;22.10;81.60
17080;DHT22;8655;57.106;-2.088;2023-08-21T07:45:13;22.10;81.60
17080;DHT22;8655;57.106;-2.088;2023-08-21T07:47:39;22.00;81.50
17080;DHT22;8655;57.106;-2.088;2023-08-21T07:50:06;22.10;81.60
17080;DHT22;8655;57.106;-2.088;2023-08-21T07:52:33;22.10;81.60
17080;DHT22;8655;57.106;-2.088;2023-08-21T07:54:58;22.00;81.50
17080;DHT22;8655;57.106;-2.088;2023-08-21T07:57:29;22.10;81.60
17080;DHT22;8655;57.106;-2.088;2023-08-21T07:59:56;22.10;81.60
17080;DHT22;8655;57.106;-2.088;2023-08-21T08:02:22;22.00;81.60
17080;DHT22;8655;57.106;-2.088;2023-08-21T08:04:48;22.00;81.50
17080;DHT22;8655;57.106;-2.088;2023-08-21T08:07:14;22.00;81.50
17080;DHT22;8655;57.106;-2.088;2023-08-21T08:09:39;22.10;81.60
17080;DHT22;8655;57.106;-2.088;2023-08-21T08:12:05;22.10;81.60
17080;DHT22;8655;57.106;-2.088;2023-08-21T08:14:31;22.10;81.60
17080;DHT22;8655;57.106;-2.088;2023-08-21T08:16:57;22.10;81.60
17080;DHT22;8655;57.106;-2.088;2023-08-21T08:19:22;22.10;82.30
17080;DHT22;8655;57.106;-2.088;2023-08-21T08:21:48;22.10;81.70
17080;DHT22;8655;57.106;-2.088;2023-08-21T08:24:14;22.10;81.70
17080;DHT22;8655;57.106;-2.088;2023-08-21T08:26:39;22.10;81.70
17080;DHT22;8655;57.106;-2.088;2023-08-21T08:29:07;22.10;81.70
17080;DHT22;8655;57.106;-2.088;2023-08-21T08:31:32;22.10;81.70
17080;DHT22;8655;57.106;-2.088;2023-08-21T08:33:58;22.10;81.70
17080;DHT22;8655;57.106;-2.088;2023-08-21T08:36:24;22.10;81.70
17080;DHT22;8655;57.106;-2.088;2023-08-21T08:38:50;22.10;81.60
17080;DHT22;8655;57.106;-2.088;2023-08-21T08:43:57;22.10;81.70
17080;DHT22;8655;57.106;-2.088;2023-08-21T08:46:24;22.10;81.70
17080;DHT22;8655;57.106;-2.088;2023-08-21T08:48:51;22.10;81.70
17080;DHT22;8655;57.106;-2.088;2023-08-21T08:51:17;22.10;81.70
17080;DHT22;8655;57.106;-2.088;2023-08-21T08:53:43;22.10;81.70
17080;DHT22;8655;57.106;-2.088;2023-08-21T08:56:09;22.00;81.60
17080;DHT22;8655;57.106;-2.088;2023-08-21T08:58:35;22.10;81.70
17080;DHT22;8655;57.106;-2.088;2023-08-21T09:01:01;22.10;81.70
17080;DHT22;8655;57.106;-2.088;2023-08-21T09:03:27;22.10;81.80
17080;DHT22;8655;57.106;-2.088;2023-08-21T09:05:53;22.10;81.80
17080;DHT22;8655;57.106;-2.088;2023-08-21T09:08:19;22.10;81.80
17080;DHT22;8655;57.106;-2.088;2023-08-21T09:10:45;22.10;81.80
17080;DHT22;8655;57.106;-2.088;2023-08-21T09:13:18;22.10;81.80
17080;DHT22;8655;57.106;-2.088;2023-08-21T09:15:48;22.10;81.80
17080;DHT22;8655;57.106;-2.088;2023-08-21T09:18:15;22.10;81.80
17080;DHT22;8655;57.106;-2.088;2023-08-21T09:20:41;22.10;81.80
17080;DHT22;8655;57.106;-2.088;2023-08-21T09:23:07;22.10;81.90
17080;DHT22;8655;57.106;-2.088;2023-08-21T09:25:38;22.10;81.80
17080;DHT22;8655;57.106;-2.088;2023-08-21T09:28:05;22.10;81.80
17080;DHT22;8655;57.106;-2.088;2023-08-21T09:33:12;22.10;81.90
17080;DHT22;8655;57.106;-2.088;2023-08-21T09:35:38;22.10;81.80
17080;DHT22;8655;57.106;-2.088;2023-08-21T09:38:05;22.10;81.90
17080;DHT22;8655;57.106;-2.088;2023-08-21T09:40:32;22.10;81.90
17080;DHT22;8655;57.106;-2.088;2023-08-21T09:42:58;22.10;81.90
17080;DHT22;8655;57.106;-2.088;2023-08-21T09:45:25;22.20;82.00
17080;DHT22;8655;57.106;-2.088;2023-08-21T09:47:52;22.10;81.90
17080;DHT22;8655;57.106;-2.088;2023-08-21T09:50:21;22.10;81.90
17080;DHT22;8655;57.106;-2.088;2023-08-21T09:52:47;22.10;81.90
17080;DHT22;8655;57.106;-2.088;2023-08-21T09:55:14;22.10;81.90
17080;DHT22;8655;57.106;-2.088;2023-08-21T09:57:40;22.10;81.90
17080;DHT22;8655;57.106;-2.088;2023-08-21T10:00:07;22.10;81.90
17080;DHT22;8655;57.106;-2.088;2023-08-21T10:02:50;22.20;82.00
17080;DHT22;8655;57.106;-2.088;2023-08-21T10:05:19;22.10;81.90
17080;DHT22;8655;57.106;-2.088;2023-08-21T10:07:49;22.20;82.00
17080;DHT22;8655;57.106;-2.088;2023-08-21T10:10:16;22.10;82.00
17080;DHT22;8655;57.106;-2.088;2023-08-21T10:12:42;22.10;82.00
17080;DHT22;8655;57.106;-2.088;2023-08-21T10:15:08;22.20;82.10
17080;DHT22;8655;57.106;-2.088;2023-08-21T10:17:37;22.10;82.00
17080;DHT22;8655;57.106;-2.088;2023-08-21T10:20:07;22.20;82.10
17080;DHT22;8655;57.106;-2.088;2023-08-21T10:22:45;22.20;82.10
17080;DHT22;8655;57.106;-2.088;2023-08-21T10:25:29;22.20;82.10
17080;DHT22;8655;57.106;-2.088;2023-08-21T10:27:56;22.20;82.10
17080;DHT22;8655;57.106;-2.088;2023-08-21T10:30:25;22.20;82.10
17080;DHT22;8655;57.106;-2.088;2023-08-21T10:32:52;22.20;82.10
17080;DHT22;8655;57.106;-2.088;2023-08-21T10:35:23;22.20;82.20
17080;DHT22;8655;57.106;-2.088;2023-08-21T10:40:34;22.20;82.10
17080;DHT22;8655;57.106;-2.088;2023-08-21T10:43:00;22.20;82.10
17080;DHT22;8655;57.106;-2.088;2023-08-21T10:45:27;22.20;82.90
17080;DHT22;8655;57.106;-2.088;2023-08-21T10:47:59;22.20;82.30
17080;DHT22;8655;57.106;-2.088;2023-08-21T10:50:25;22.20;82.20
17080;DHT22;8655;57.106;-2.088;2023-08-21T10:52:52;22.20;82.20
17080;DHT22;8655;57.106;-2.088;2023-08-21T10:55:19;22.20;82.20
17080;DHT22;8655;57.106;-2.088;2023-08-21T10:57:49;22.20;82.20
17080;DHT22;8655;57.106;-2.088;2023-08-21T11:00:19;22.20;82.30
17080;DHT22;8655;57.106;-2.088;2023-08-21T11:02:48;22.20;82.20
17080;DHT22;8655;57.106;-2.088;2023-08-21T11:05:15;22.20;82.30
17080;DHT22;8655;57.106;-2.088;2023-08-21T11:07:46;22.20;82.30
17080;DHT22;8655;57.106;-2.088;2023-08-21T11:10:23;22.20;82.30
17080;DHT22;8655;57.106;-2.088;2023-08-21T11:12:53;22.20;82.30
17080;DHT22;8655;57.106;-2.088;2023-08-21T11:15:21;22.20;82.30
17080;DHT22;8655;57.106;-2.088;2023-08-21T11:17:55;22.20;82.30
17080;DHT22;8655;57.106;-2.088;2023-08-21T11:20:22;22.20;82.30
17080;DHT22;8655;57.106;-2.088;2023-08-21T11:22:47;22.20;82.30
17080;DHT22;8655;57.106;-2.088;2023-08-21T11:25:15;22.20;82.30
17080;DHT22;8655;57.106;-2.088;2023-08-21T11:27:41;22.20;82.30
17080;DHT22;8655;57.106;-2.088;2023-08-21T11:30:11;22.20;82.30
17080;DHT22;8655;57.106;-2.088;2023-08-21T11:32:36;22.20;82.40
17080;DHT22;8655;57.106;-2.088;2023-08-21T11:35:02;22.20;83.00
17080;DHT22;8655;57.106;-2.088;2023-08-21T11:37:28;22.20;82.30
17080;DHT22;8655;57.106;-2.088;2023-08-21T11:39:57;22.20;82.40
17080;DHT22;8655;57.106;-2.088;2023-08-21T11:42:32;22.20;82.40
17080;DHT22;8655;57.106;-2.088;2023-08-21T11:44:59;22.30;82.50
17080;DHT22;8655;57.106;-2.088;2023-08-21T11:47:31;22.20;82.40
17080;DHT22;8655;57.106;-2.088;2023-08-21T11:49:57;22.20;82.40
17080;DHT22;8655;57.106;-2.088;2023-08-21T11:52:29;22.30;82.50
17080;DHT22;8655;57.106;-2.088;2023-08-21T11:54:57;22.30;82.50
17080;DHT22;8655;57.106;-2.088;2023-08-21T11:57:23;22.30;82.50
17080;DHT22;8655;57.106;-2.088;2023-08-21T11:59:53;22.30;82.50
17080;DHT22;8655;57.106;-2.088;2023-08-21T12:02:28;22.20;82.40
17080;DHT22;8655;57.106;-2.088;2023-08-21T12:04:54;22.20;82.40
17080;DHT22;8655;57.106;-2.088;2023-08-21T12:07:23;22.30;82.50
17080;DHT22;8655;57.106;-2.088;2023-08-21T12:09:49;22.30;82.50
17080;DHT22;8655;57.106;-2.088;2023-08-21T12:12:15;22.30;82.60
17080;DHT22;8655;57.106;-2.088;2023-08-21T12:14:41;22.30;82.60
17080;DHT22;8655;57.106;-2.088;2023-08-21T12:17:07;22.30;82.60
17080;DHT22;8655;57.106;-2.088;2023-08-21T12:19:32;22.30;82.60
17080;DHT22;8655;57.106;-2.088;2023-08-21T12:21:58;22.30;82.60
17080;DHT22;8655;57.106;-2.088;2023-08-21T12:24:24;22.30;82.70
17080;DHT22;8655;57.106;-2.088;2023-08-21T12:26:50;22.30;82.60
17080;DHT22;8655;57.106;-2.088;2023-08-21T12:29:16;22.30;82.70
17080;DHT22;8655;57.106;-2.088;2023-08-21T12:31:41;22.30;82.70
17080;DHT22;8655;57.106;-2.088;2023-08-21T12:34:07;22.30;82.70
17080;DHT22;8655;57.106;-2.088;2023-08-21T12:36:36;22.30;82.70
17080;DHT22;8655;57.106;-2.088;2023-08-21T12:39:03;22.30;82.80
17080;DHT22;8655;57.106;-2.088;2023-08-21T12:41:29;22.30;82.70
17080;DHT22;8655;57.106;-2.088;2023-08-21T12:43:55;22.30;83.40
17080;DHT22;8655;57.106;-2.088;2023-08-21T12:46:21;22.30;82.80
17080;DHT22;8655;57.106;-2.088;2023-08-21T12:48:47;22.40;82.80
17080;DHT22;8655;57.106;-2.088;2023-08-21T12:51:13;22.40;82.90
17080;DHT22;8655;57.106;-2.088;2023-08-21T12:53:39;22.40;82.90
17080;DHT22;8655;57.106;-2.088;2023-08-21T12:56:04;22.40;82.90
17080;DHT22;8655;57.106;-2.088;2023-08-21T12:58:30;22.40;82.80
17080;DHT22;8655;57.106;-2.088;2023-08-21T13:00:56;22.30;82.80
17080;DHT22;8655;57.106;-2.088;2023-08-21T13:03:21;22.40;82.80
17080;DHT22;8655;57.106;-2.088;2023-08-21T13:05:47;22.40;82.90
17080;DHT22;8655;57.106;-2.088;2023-08-21T13:08:13;22.40;82.90
17080;DHT22;8655;57.106;-2.088;2023-08-21T13:10:39;22.40;82.90
17080;DHT22;8655;57.106;-2.088;2023-08-21T13:13:05;22.40;82.90
17080;DHT22;8655;57.106;-2.088;2023-08-21T13:15:30;22.40;82.90
17080;DHT22;8655;57.106;-2.088;2023-08-21T13:17:57;22.40;82.90
17080;DHT22;8655;57.106;-2.088;2023-08-21T13:20:23;22.40;82.90
17080;DHT22;8655;57.106;-2.088;2023-08-21T13:22:50;22.40;82.90
17080;DHT22;8655;57.106;-2.088;2023-08-21T13:25:18;22.40;82.90
17080;DHT22;8655;57.106;-2.088;2023-08-21T13:27:46;22.40;82.90
17080;DHT22;8655;57.106;-2.088;2023-08-21T13:30:12;22.40;82.90
17080;DHT22;8655;57.106;-2.088;2023-08-21T13:32:38;22.40;82.90
17080;DHT22;8655;57.106;-2.088;2023-08-21T13:35:04;22.40;82.90
17080;DHT22;8655;57.106;-2.088;2023-08-21T13:37:32;22.40;82.90
17080;DHT22;8655;57.106;-2.088;2023-08-21T13:39:58;22.40;83.00
17080;DHT22;8655;57.106;-2.088;2023-08-21T13:42:26;22.40;83.00
17080;DHT22;8655;57.106;-2.088;2023-08-21T13:44:56;22.40;83.00
17080;DHT22;8655;57.106;-2.088;2023-08-21T13:47:22;22.40;82.90
17080;DHT22;8655;57.106;-2.088;2023-08-21T13:49:48;22.40;82.90
17080;DHT22;8655;57.106;-2.088;2023-08-21T13:52:13;22.40;82.90
17080;DHT22;8655;57.106;-2.088;2023-08-21T13:54:39;22.40;83.00
17080;DHT22;8655;57.106;-2.088;2023-08-21T13:57:05;22.40;83.00
17080;DHT22;8655;57.106;-2.088;2023-08-21T13:59:30;22.40;83.00
17080;DHT22;8655;57.106;-2.088;2023-08-21T14:01:56;22.40;83.00
17080;DHT22;8655;57.106;-2.088;2023-08-21T14:04:21;22.50;83.10
17080;DHT22;8655;57.106;-2.088;2023-08-21T14:06:47;22.50;83.10
17080;DHT22;8655;57.106;-2.088;2023-08-21T14:09:13;22.50;83.10
17080;DHT22;8655;57.106;-2.088;2023-08-21T14:11:38;22.50;83.10
17080;DHT22;8655;57.106;-2.088;2023-08-21T14:14:04;22.50;83.10
17080;DHT22;8655;57.106;-2.088;2023-08-21T14:16:30;22.50;83.10
17080;DHT22;8655;57.106;-2.088;2023-08-21T14:18:55;22.50;83.10
17080;DHT22;8655;57.106;-2.088;2023-08-21T14:21:21;22.50;83.10
17080;DHT22;8655;57.106;-2.088;2023-08-21T14:23:46;22.50;83.10
17080;DHT22;8655;57.106;-2.088;2023-08-21T14:26:12;22.50;83.50
17080;DHT22;8655;57.106;-2.088;2023-08-21T14:28:38;22.50;83.10
17080;DHT22;8655;57.106;-2.088;2023-08-21T14:31:03;22.50;83.20
17080;DHT22;8655;57.106;-2.088;2023-08-21T14:33:29;22.50;83.10
17080;DHT22;8655;57.106;-2.088;2023-08-21T14:35:55;22.50;83.10
17080;DHT22;8655;57.106;-2.088;2023-08-21T14:38:22;22.50;83.10
17080;DHT22;8655;57.106;-2.088;2023-08-21T14:40:48;22.50;83.10
17080;DHT22;8655;57.106;-2.088;2023-08-21T14:43:14;22.50;83.20
17080;DHT22;8655;57.106;-2.088;2023-08-21T14:45:40;22.50;83.20
17080;DHT22;8655;57.106;-2.088;2023-08-21T14:48:06;22.50;83.20
17080;DHT22;8655;57.106;-2.088;2023-08-21T14:50:31;22.50;83.20
17080;DHT22;8655;57.106;-2.088;2023-08-21T14:52:57;22.50;83.20
17080;DHT22;8655;57.106;-2.088;2023-08-21T14:55:22;22.50;83.20
17080;DHT22;8655;57.106;-2.088;2023-08-21T14:57:48;22.60;83.30
17080;DHT22;8655;57.106;-2.088;2023-08-21T15:00:14;22.50;83.20
17080;DHT22;8655;57.106;-2.088;2023-08-21T15:02:42;22.60;83.30
17080;DHT22;8655;57.106;-2.088;2023-08-21T15:05:08;22.60;83.30
17080;DHT22;8655;57.106;-2.088;2023-08-21T15:07:34;22.60;83.30
17080;DHT22;8655;57.106;-2.088;2023-08-21T15:10:00;22.60;83.40
17080;DHT22;8655;57.106;-2.088;2023-08-21T15:12:26;22.60;83.40
17080;DHT22;8655;57.106;-2.088;2023-08-21T15:14:51;22.60;83.30
17080;DHT22;8655;57.106;-2.088;2023-08-21T15:17:18;22.60;83.40
17080;DHT22;8655;57.106;-2.088;2023-08-21T15:19:44;22.60;83.40
17080;DHT22;8655;57.106;-2.088;2023-08-21T15:22:09;22.60;83.40
17080;DHT22;8655;57.106;-2.088;2023-08-21T15:24:35;22.60;83.40
17080;DHT22;8655;57.106;-2.088;2023-08-21T15:27:00;22.60;83.40
17080;DHT22;8655;57.106;-2.088;2023-08-21T15:29:26;22.60;83.40
17080;DHT22;8655;57.106;-2.088;2023-08-21T15:31:52;22.60;83.40
17080;DHT22;8655;57.106;-2.088;2023-08-21T15:34:18;22.60;83.40
17080;DHT22;8655;57.106;-2.088;2023-08-21T15:36:44;22.60;83.40
17080;DHT22;8655;57.106;-2.088;2023-08-21T15:39:09;22.60;83.40
17080;DHT22;8655;57.106;-2.088;2023-08-21T15:41:35;22.60;83.40